LiveATC.Net - Listen to live air traffic control over the Internet! Contact LiveATC.net for advertising information


ICAO: ENVA  IATA: TRD   Airport: Vaernes Airport
City: Trondheim
Country: Norway   Continent: Europe
ENVA METAR Weather: ENVA 070950Z 11005KT 080V150 9999 FEW044 SCT055 06/M00 Q0983 TEMPO 16015KT RMK WIND 670FT 17014KT
ENVA Flight Activity (FlightAware)
ENVA Gnd/Twr/App
Feed Status: UP   Listeners: 0
Listen right in your browser - requires Flash (in browser, requires Flash)
Click here to listen with your own player (launches your MP3 player)
ENVA Gnd/Twr/App Audio Archives
FacilityFrequency
Approach118.250
Trondheim Ground121.600
Trondheim Ground121.900
Trondheim Tower118.600
Trondheim Tower119.400


NOTICE

Unauthorized use prohibited. See LiveATC.net Terms of Service


Find LiveATC Audio Streams


Airport/ARTCC Code

Frequency
(e.g., 124.400, 128.75)
Site-wide search

Browse LiveATC Feeds
LiveATC Coverage Map
Top 50 LiveATC Feeds
Bad Weather Areas

LiveATC FAQ
Offer a LiveATC Feed
Contact LiveATC.net
Press Inquiries

LiveATC on iPhone
LiveATC on Android

Windows Phone
Windows 8/10

LiveATC Mobile
(Mobile browser)

ATC Audio Archives
Interesting Recordings

LiveATC Forums


Home Page
About LiveATC.net
Make a Donation
LiveATC Store

Terms of Use
Privacy Policy

Canadian Air Freqs

AIRMETs/SIGMETs

FAA Airport Status
Nat'l Airspace Status
Arrival Demand Charts


Server Software By:
Icecast.org
Liquidsoap

Please make a donation to help us keep growing!